Vassar, Michigan
Current Conditions -  °F | °C
As of 1:15 PM on Thursday 23 Oct 2014 (Local Time) from KCFS Reporting Station
Broken Clouds Broken Clouds  
Wind Chill: 47°   Ceiling: 1700
Heat Index: 49°   Visibility: 10mi
Dew Point: 41°   Wind: 5mph
Humidity: 74%   Direction: 300°WNW
Pressure: 30.21"   Gusts: NA
Location:  43.37°N, 83.58°W
Report Text: KCFS 231715Z AUTO 30004KT 10SM BKN017 09/05 A3021 RMK AO2 T00930048
Loading
Personal Weather Stations






























Interactive Weather Map
Tropical Storm Tracking
New forecast layout! Learn more

10-Day Weather Forecast

Advertisements
Track Severe Weather on mobile